MMNL/NLD METAR and TAF weather

Enter ICAO airport designator
Station Type Date Time Source
MMNL METAR 2020/04/03 00:41 UTC NOAA

MMNL 030041Z 13010KT 10SM BKN200 29/19 A2974 RMK 8/002


Station Type Date Time Source
MMNL Decoded METAR 2020/04/03 00:41 UTC NOAA

Nuevo Laredo International , Mexico (MMNL) 27-26N 099-34W
Apr 02, 2020 - 08:41 PM EDT / 2020.04.03 0041 UTC
Wind: from the SE (130 degrees) at 12 MPH (10 KT):0
Visibility: 10 mile(s):0
Sky conditions: mostly cloudy
Temperature: 84 F (29 C)
Dew Point: 66 F (19 C)
Relative Humidity: 54%
Pressure (altimeter): 29.74 in. Hg (1007 hPa)
ob: MMNL 030041Z 13010KT 10SM BKN200 29/19 A2974 RMK 8/002
cycle: 0

Station Type Date Time Source
MMNL TAF 2020/04/03 06:56 UTC NOAA

TAF MMNL 030553Z 0306/0406 13008KT P6SM BKN200
TEMPO 0312/0315 3SM BR OVC010
FM031500 13010KT 5SM -RA BKN020CB OVC100
TEMPO 0318/0322 3SM TSRA BKN015CB OVC030
FM040200 13010KT 5SM -TSRA BKN015CB OVC050

Example: see airport list